Time;durP1;ratioP1;P1;durP2;ratioP2;P2;SDS_P1;SDS_P2;PMS_P1;PMS_P2;Temp;Humidity;BMP_temperature;BMP_pressure;BME280_temperature;BME280_humidity;BME280_pressure;Samples;Min_cycle;Max_cycle;Signal;HPM_P1;HPM_P2
2023/06/22 00:00:00;;;;;;;11.60;10.38;;;;;;;20.31;100.00;99649.78;5109407;28;20211;-75
2023/06/22 00:02:26;;;;;;;12.23;11.02;;;;;;;20.29;100.00;99646.53;5111780;28;20200;-75
2023/06/22 00:04:53;;;;;;;15.00;11.13;;;;;;;20.29;100.00;99652.78;5107805;28;20196;-76
2023/06/22 00:07:20;;;;;;;12.40;11.20;;;;;;;20.23;100.00;99643.84;5109334;28;20284;-75
2023/06/22 00:09:46;;;;;;;15.07;13.45;;;;;;;20.20;100.00;99646.31;5115038;28;20667;-75
2023/06/22 00:12:13;;;;;;;16.40;13.50;;;;;;;20.20;100.00;99641.66;5111754;28;20191;-76
2023/06/22 00:14:40;;;;;;;13.57;12.25;;;;;;;20.18;100.00;99641.16;5110824;28;20634;-75
2023/06/22 00:17:06;;;;;;;13.65;12.27;;;;;;;20.15;100.00;99639.00;5115103;28;20192;-75
2023/06/22 00:19:35;;;;;;;13.00;11.57;;;;;;;20.14;100.00;99642.81;5106789;28;20200;-76
2023/06/22 00:22:03;;;;;;;13.05;11.75;;;;;;;20.13;100.00;99641.19;5112861;28;20209;-75
2023/06/22 00:24:30;;;;;;;13.67;12.17;;;;;;;20.11;100.00;99639.84;5115253;28;20326;-76
2023/06/22 00:26:57;;;;;;;13.48;12.13;;;;;;;20.04;100.00;99637.44;5115159;28;20256;-76
2023/06/22 00:29:23;;;;;;;14.95;12.80;;;;;;;20.03;100.00;99645.84;5096678;28;20225;-75
2023/06/22 00:31:51;;;;;;;14.13;12.73;;;;;;;20.01;100.00;99640.72;5096580;28;20218;-74
2023/06/22 00:34:18;;;;;;;15.60;12.25;;;;;;;19.99;100.00;99636.66;5095075;28;20644;-76
2023/06/22 00:36:45;;;;;;;14.15;12.43;;;;;;;19.96;100.00;99642.66;5096686;28;20378;-75
2023/06/22 00:39:13;;;;;;;13.27;12.05;;;;;;;19.92;100.00;99636.97;5114628;28;20248;-76
2023/06/22 00:41:40;;;;;;;16.65;12.95;;;;;;;19.91;100.00;99638.06;5096414;28;20200;-76
2023/06/22 00:44:08;;;;;;;14.10;12.63;;;;;;;19.93;100.00;99641.28;5096652;28;20223;-75
2023/06/22 00:46:35;;;;;;;15.03;12.40;;;;;;;19.93;100.00;99643.19;5096498;28;20230;-75
2023/06/22 00:49:03;;;;;;;17.50;13.93;;;;;;;19.93;100.00;99635.03;5094866;28;20559;-76
2023/06/22 00:51:30;;;;;;;16.60;14.80;;;;;;;19.89;100.00;99637.50;5095040;28;20199;-76
2023/06/22 00:53:57;;;;;;;19.15;16.05;;;;;;;19.84;100.00;99636.72;5108405;28;20204;-75
2023/06/22 00:56:24;;;;;;;18.90;16.63;;;;;;;19.81;100.00;99638.09;5093442;28;20195;-75
2023/06/22 00:58:52;;;;;;;18.15;16.25;;;;;;;19.78;100.00;99639.47;5093380;28;20227;-74
2023/06/22 01:01:23;;;;;;;18.85;15.57;;;;;;;19.78;100.00;99636.75;5103758;28;20200;-76
2023/06/22 01:03:50;;;;;;;19.03;17.03;;;;;;;19.78;100.00;99631.31;5111443;28;20246;-75
2023/06/22 01:06:27;;;;;;;23.65;17.23;;;;;;;19.75;100.00;99636.50;5109874;28;20196;-76
2023/06/22 01:09:05;;;;;;;19.60;17.60;;;;;;;19.71;100.00;99638.16;5079410;28;20214;-77
2023/06/22 01:11:45;;;;;;;19.52;16.75;;;;;;;19.69;100.00;99638.41;5098971;28;20199;-75
2023/06/22 01:14:16;;;;;;;22.03;17.30;;;;;;;19.68;100.00;99641.44;5096787;28;20194;-74
2023/06/22 01:16:44;;;;;;;20.23;18.13;;;;;;;19.68;100.00;99638.72;5109806;28;20720;-75
2023/06/22 01:19:37;;;;;;;20.45;18.25;;;;;;;19.65;100.00;99629.19;5108161;28;20204;-75
2023/06/22 01:22:15;;;;;;;20.20;17.73;;;;;;;19.60;100.00;99628.41;5095999;28;20245;-76
2023/06/22 01:24:51;;;;;;;20.60;18.30;;;;;;;19.55;100.00;99628.44;5080273;28;20211;-75
2023/06/22 01:27:45;;;;;;;20.17;17.80;;;;;;;19.52;100.00;99618.13;5090115;28;20239;-74
2023/06/22 01:30:14;;;;;;;20.67;18.53;;;;;;;19.50;100.00;99620.31;5079235;28;20235;-75
2023/06/22 01:32:41;;;;;;;21.23;18.23;;;;;;;19.46;100.00;99616.50;5095874;28;20654;-74
2023/06/22 01:35:09;;;;;;;21.80;18.63;;;;;;;19.37;100.00;99608.09;5078441;28;20218;-75
2023/06/22 01:37:37;;;;;;;23.57;18.47;;;;;;;19.37;100.00;99599.94;5096081;28;20191;-75
2023/06/22 01:40:05;;;;;;;20.53;17.90;;;;;;;19.31;100.00;99601.88;5078847;28;20642;-75
2023/06/22 01:42:32;;;;;;;20.73;17.37;;;;;;;19.29;100.00;99601.34;5095818;28;20657;-75
2023/06/22 01:45:00;;;;;;;20.30;18.17;;;;;;;19.26;100.00;99612.78;5070283;28;20244;-75
2023/06/22 01:47:27;;;;;;;20.63;18.40;;;;;;;19.26;100.00;99606.53;5096181;28;20211;-75
2023/06/22 01:49:55;;;;;;;20.93;18.80;;;;;;;19.22;100.00;99613.59;5079752;28;20569;-75
2023/06/22 01:52:21;;;;;;;19.83;17.97;;;;;;;19.17;100.00;99619.84;5102033;28;20721;-75
2023/06/22 01:54:48;;;;;;;21.17;18.13;;;;;;;19.13;100.00;99626.91;5093179;28;20264;-74
2023/06/22 01:57:15;;;;;;;21.40;18.87;;;;;;;19.11;100.00;99625.56;5090356;28;20198;-75
2023/06/22 02:00:05;;;;;;;20.13;18.20;;;;;;;19.09;100.00;99631.25;5097218;28;20701;-75
2023/06/22 02:02:52;;;;;;;19.33;17.40;;;;;;;19.07;100.00;99625.31;5076268;28;20783;-76
2023/06/22 02:05:19;;;;;;;19.10;17.07;;;;;;;19.07;100.00;99622.59;5099329;28;20623;-76
2023/06/22 02:07:50;;;;;;;19.93;18.03;;;;;;;19.05;100.00;99622.03;5081746;28;20195;-75
2023/06/22 02:10:19;;;;;;;22.47;17.77;;;;;;;19.02;100.00;99617.16;5094415;28;20208;-76
2023/06/22 02:12:46;;;;;;;21.70;18.40;;;;;;;19.02;100.00;99622.59;5095003;28;20205;-78
2023/06/22 02:15:14;;;;;;;20.23;16.30;;;;;;;19.03;100.00;99624.25;5087131;28;20615;-75
2023/06/22 02:17:44;;;;;;;18.97;17.17;;;;;;;19.03;100.00;99628.84;5112165;28;20203;-76
2023/06/22 02:20:15;;;;;;;18.00;16.20;;;;;;;18.97;100.00;99625.31;5107103;28;20539;-75
2023/06/22 02:22:42;;;;;;;16.67;15.07;;;;;;;18.98;100.00;99623.44;5109758;28;20216;-76
2023/06/22 02:25:10;;;;;;;17.73;15.87;;;;;;;18.95;100.00;99611.19;5106955;28;20181;-75
2023/06/22 02:27:40;;;;;;;16.57;15.07;;;;;;;18.99;100.00;99622.34;5094360;28;20195;-76
2023/06/22 02:30:10;;;;;;;16.97;14.90;;;;;;;18.95;100.00;99616.63;5094024;28;20248;-75
2023/06/22 02:32:41;;;;;;;17.93;15.30;;;;;;;18.97;100.00;99610.94;5094586;28;20206;-75
2023/06/22 02:35:11;;;;;;;15.77;14.07;;;;;;;18.97;100.00;99611.75;5112268;28;20237;-75
2023/06/22 02:37:41;;;;;;;15.60;14.00;;;;;;;18.96;100.00;99603.88;5112376;28;20195;-77
2023/06/22 02:40:09;;;;;;;19.50;14.53;;;;;;;18.97;100.00;99600.06;5093837;28;20206;-76
2023/06/22 02:42:36;;;;;;;15.73;13.83;;;;;;;18.96;100.00;99601.16;5096818;28;20248;-75
2023/06/22 02:45:03;;;;;;;16.27;13.87;;;;;;;18.95;100.00;99599.53;5092331;28;20209;-75
2023/06/22 02:47:30;;;;;;;15.80;13.47;;;;;;;18.95;100.00;99604.94;5073765;28;20203;-76
2023/06/22 02:49:57;;;;;;;15.67;13.93;;;;;;;18.94;100.00;99597.91;5069947;28;20223;-75
2023/06/22 02:52:24;;;;;;;14.17;12.57;;;;;;;18.92;100.00;99592.75;5073257;28;20673;-77
2023/06/22 02:54:52;;;;;;;17.50;13.23;;;;;;;18.92;100.00;99596.28;5083647;28;20209;-76
2023/06/22 02:57:19;;;;;;;16.93;14.10;;;;;;;18.94;100.00;99587.88;5094030;28;20332;-76
2023/06/22 02:59:45;;;;;;;14.77;13.37;;;;;;;18.97;100.00;99600.88;5110158;28;20272;-77
2023/06/22 03:02:12;;;;;;;15.40;13.90;;;;;;;18.99;100.00;99595.97;5093429;28;20205;-77
2023/06/22 03:04:40;;;;;;;16.03;14.53;;;;;;;18.94;100.00;99582.44;5093537;28;20223;-76
2023/06/22 03:07:07;;;;;;;15.10;13.60;;;;;;;18.97;100.00;99587.31;5093331;28;20281;-76
2023/06/22 03:09:34;;;;;;;16.07;14.40;;;;;;;18.97;100.00;99581.88;5093615;28;20216;-77
2023/06/22 03:12:02;;;;;;;16.63;14.87;;;;;;;18.96;100.00;99585.69;5076868;28;20662;-77
2023/06/22 03:14:42;;;;;;;15.43;13.90;;;;;;;18.96;100.00;99588.41;5100629;28;20672;-75
2023/06/22 03:17:10;;;;;;;17.47;15.23;;;;;;;18.96;100.00;99591.13;5100340;28;20201;-76
2023/06/22 03:19:37;;;;;;;16.50;14.70;;;;;;;18.99;100.00;99571.53;5096556;28;20208;-76
2023/06/22 03:22:04;;;;;;;17.47;15.53;;;;;;;19.00;100.00;99570.47;5098764;28;20225;-76
2023/06/22 03:24:31;;;;;;;16.07;14.47;;;;;;;19.06;100.00;99580.22;5118684;28;20262;-76
2023/06/22 03:26:58;;;;;;;19.27;14.90;;;;;;;19.08;100.00;99582.69;5100214;28;20246;-77
2023/06/22 03:29:25;;;;;;;14.73;13.23;;;;;;;19.10;100.00;99588.63;5119098;28;20620;-77
2023/06/22 03:31:55;;;;;;;16.20;14.27;;;;;;;19.15;100.00;99589.44;5100251;28;20224;-75
2023/06/22 03:34:22;;;;;;;17.20;15.40;;;;;;;19.21;100.00;99577.47;5085358;28;20202;-75
2023/06/22 03:36:51;;;;;;;19.07;14.47;;;;;;;19.30;100.00;99573.09;5097318;28;20212;-75
2023/06/22 03:39:18;;;;;;;17.30;15.37;;;;;;;19.35;100.00;99569.53;5108883;28;20649;-75
2023/06/22 03:41:44;;;;;;;17.87;14.97;;;;;;;19.45;100.00;99574.16;5098481;28;20201;-76
2023/06/22 03:44:12;;;;;;;17.50;14.40;;;;;;;19.56;100.00;99575.72;5085355;28;20224;-75
2023/06/22 03:46:39;;;;;;;16.63;14.93;;;;;;;19.66;100.00;99575.66;5090776;28;20254;-76
2023/06/22 03:49:05;;;;;;;17.13;14.90;;;;;;;19.79;100.00;99566.88;5083191;28;20694;-76
2023/06/22 03:51:32;;;;;;;17.80;14.87;;;;;;;19.90;100.00;99571.16;5105390;28;20198;-77
2023/06/22 03:53:59;;;;;;;17.80;14.17;;;;;;;20.04;100.00;99568.63;5102549;27;20254;-75
2023/06/22 03:56:26;;;;;;;19.70;15.33;;;;;;;20.17;100.00;99571.50;5102122;28;20574;-78
2023/06/22 03:58:53;;;;;;;16.47;14.73;;;;;;;20.32;100.00;99567.09;5102790;28;20200;-75
2023/06/22 04:01:19;;;;;;;18.10;14.83;;;;;;;20.42;100.00;99575.16;5100095;28;20201;-75
2023/06/22 04:03:48;;;;;;;18.90;14.50;;;;;;;20.54;100.00;99575.59;5100200;28;20908;-75
2023/06/22 04:06:15;;;;;;;19.53;14.63;;;;;;;20.66;100.00;99576.03;5112210;28;20199;-75
2023/06/22 04:08:42;;;;;;;15.67;14.03;;;;;;;20.93;100.00;99573.59;5104020;28;20223;-75
2023/06/22 04:11:08;;;;;;;17.30;14.57;;;;;;;21.52;100.00;99567.72;5112858;28;20214;-76
2023/06/22 04:13:35;;;;;;;15.40;13.70;;;;;;;22.18;100.00;99574.97;5118649;28;20203;-75
2023/06/22 04:16:02;;;;;;;15.95;14.35;;;;;;;22.94;100.00;99570.97;5118117;28;20200;-76
2023/06/22 04:18:29;;;;;;;15.93;14.25;;;;;;;23.62;100.00;99565.47;5111541;27;20188;-76
2023/06/22 04:20:55;;;;;;;15.55;13.52;;;;;;;24.24;100.00;99563.00;5116215;27;20609;-75
2023/06/22 04:23:22;;;;;;;18.25;14.15;;;;;;;24.73;100.00;99550.25;5115238;28;20705;-77
2023/06/22 04:25:49;;;;;;;15.10;13.02;;;;;;;25.19;100.00;99549.84;5114962;28;20642;-75
2023/06/22 04:28:15;;;;;;;15.30;13.55;;;;;;;25.59;100.00;99542.34;5115065;28;20235;-75
2023/06/22 04:30:46;;;;;;;16.38;13.35;;;;;;;25.96;100.00;99546.41;5096964;28;20251;-75
2023/06/22 04:33:14;;;;;;;15.77;13.13;;;;;;;26.02;100.00;99551.44;5114883;28;20191;-75
2023/06/22 04:35:41;;;;;;;14.95;13.38;;;;;;;26.36;100.00;99558.88;5108970;28;20252;-75
2023/06/22 04:38:08;;;;;;;17.15;13.75;;;;;;;26.40;100.00;99559.84;5102966;28;20199;-76
2023/06/22 04:40:35;;;;;;;16.77;13.88;;;;;;;26.35;100.00;99573.75;5114501;28;20244;-78
2023/06/22 04:43:02;;;;;;;16.50;13.82;;;;;;;25.67;100.00;99566.25;5114557;28;20214;-78
2023/06/22 04:45:29;;;;;;;15.00;13.50;;;;;;;25.26;100.00;99567.44;5110578;28;20254;-79
2023/06/22 04:47:55;;;;;;;17.63;15.07;;;;;;;24.99;100.00;99560.25;5114312;28;20202;-77
2023/06/22 04:50:23;;;;;;;16.23;13.93;;;;;;;24.72;100.00;99563.16;5114307;28;20195;-78
2023/06/22 04:52:51;;;;;;;15.35;13.85;;;;;;;24.59;100.00;99568.72;5110440;28;20194;-79
2023/06/22 04:55:19;;;;;;;16.77;14.68;;;;;;;24.42;100.00;99555.69;5114047;28;20203;-78
2023/06/22 04:57:48;;;;;;;15.35;13.82;;;;;;;24.22;100.00;99573.44;5114283;28;20206;-79
2023/06/22 05:00:17;;;;;;;15.73;14.20;;;;;;;24.17;100.00;99573.56;5109766;28;20299;-77
2023/06/22 05:02:45;;;;;;;15.98;14.05;;;;;;;24.21;100.00;99580.06;5114104;28;20638;-78
2023/06/22 05:05:15;;;;;;;17.10;14.75;;;;;;;24.08;100.00;99578.13;5112040;28;20199;-78
2023/06/22 05:07:44;;;;;;;15.27;13.65;;;;;;;24.08;100.00;99580.84;5114468;28;20200;-77
2023/06/22 05:10:12;;;;;;;17.35;14.93;;;;;;;24.02;100.00;99580.19;5113808;28;20272;-75
2023/06/22 05:12:40;;;;;;;15.20;13.70;;;;;;;24.07;100.00;99587.47;5114305;28;20676;-78
2023/06/22 05:15:08;;;;;;;14.68;13.00;;;;;;;24.12;100.00;99585.41;5113757;28;20203;-78
2023/06/22 05:17:36;;;;;;;15.40;13.80;;;;;;;24.11;100.00;99591.19;5089423;28;20198;-75
2023/06/22 05:20:06;;;;;;;16.02;14.35;;;;;;;24.02;100.00;99584.84;5100252;28;20184;-75
2023/06/22 05:22:33;;;;;;;16.10;13.63;;;;;;;24.13;100.00;99584.28;5114166;28;20188;-75
2023/06/22 05:24:59;;;;;;;15.70;14.15;;;;;;;24.33;100.00;99591.25;5114038;28;20279;-77
2023/06/22 05:27:26;;;;;;;16.08;14.48;;;;;;;24.44;100.00;99591.81;5113893;28;20211;-76
2023/06/22 05:29:53;;;;;;;15.15;13.63;;;;;;;24.53;100.00;99593.47;5112628;28;20201;-77
2023/06/22 05:32:20;;;;;;;16.45;14.35;;;;;;;24.65;100.00;99590.16;5113426;28;20247;-76
2023/06/22 05:34:47;;;;;;;15.90;13.88;;;;;;;24.79;100.00;99590.88;5104135;28;20227;-78
2023/06/22 05:37:13;;;;;;;16.02;14.32;;;;;;;24.95;100.00;99589.41;5108388;28;20191;-77
2023/06/22 05:39:40;;;;;;;15.27;13.88;;;;;;;25.08;100.00;99592.34;5113571;28;20248;-76
2023/06/22 05:42:07;;;;;;;15.98;14.35;;;;;;;25.10;100.00;99585.44;5110495;28;20642;-77
2023/06/22 05:44:37;;;;;;;16.92;15.00;;;;;;;25.28;100.00;99589.88;5108524;28;20375;-76
2023/06/22 05:47:04;;;;;;;15.98;14.35;;;;;;;25.49;100.00;99590.06;5113471;28;20196;-77
2023/06/22 05:49:32;;;;;;;16.48;14.70;;;;;;;25.63;100.00;99592.72;5109629;28;20195;-76
2023/06/22 05:52:00;;;;;;;16.15;14.45;;;;;;;25.67;100.00;99594.50;5110473;28;20702;-76
2023/06/22 05:54:29;;;;;;;17.02;14.75;;;;;;;25.69;100.00;99594.19;5108333;28;20677;-76
2023/06/22 05:56:56;;;;;;;16.08;14.48;;;;;;;25.71;100.00;99597.44;5113016;28;20665;-76
2023/06/22 05:59:23;;;;;;;16.52;14.40;;;;;;;25.78;100.00;99600.50;5113059;28;20215;-76
2023/06/22 06:01:50;;;;;;;15.35;13.75;;;;;;;25.82;100.00;99595.97;5113093;28;20223;-78
2023/06/22 06:04:18;;;;;;;15.88;14.40;;;;;;;25.90;100.00;99588.91;5113112;28;20227;-78
2023/06/22 06:06:46;;;;;;;14.85;13.35;;;;;;;25.95;100.00;99586.78;5109106;28;20199;-78
2023/06/22 06:09:16;;;;;;;15.25;13.80;;;;;;;26.05;100.00;99586.47;5111418;28;20271;-77
2023/06/22 06:11:43;;;;;;;15.45;13.75;;;;;;;26.04;100.00;99579.34;5094794;28;20195;-79
2023/06/22 06:14:10;;;;;;;15.10;13.43;;;;;;;26.31;100.00;99585.69;5113146;28;20554;-78
2023/06/22 06:16:36;;;;;;;14.80;13.35;;;;;;;26.41;100.00;99582.63;5112979;28;20191;-78
2023/06/22 06:19:03;;;;;;;15.13;13.30;;;;;;;26.57;100.00;99581.78;5103219;28;20188;-79
2023/06/22 06:21:29;;;;;;;15.60;14.00;;;;;;;26.64;100.00;99586.78;5111751;28;20268;-78
2023/06/22 06:23:57;;;;;;;16.38;12.82;;;;;;;26.65;100.00;99582.88;5113018;28;20274;-79
2023/06/22 06:26:29;;;;;;;14.68;13.02;;;;;;;26.80;100.00;99579.63;5104024;28;20612;-79
2023/06/22 06:28:57;;;;;;;14.68;13.13;;;;;;;26.90;100.00;99575.72;5106225;28;20275;-78
2023/06/22 06:31:24;;;;;;;15.13;13.50;;;;;;;26.95;100.00;99576.38;5107044;28;20196;-79
2023/06/22 06:33:51;;;;;;;14.95;13.40;;;;;;;26.99;100.00;99576.50;5112921;28;20211;-78
2023/06/22 06:36:17;;;;;;;15.23;12.98;;;;;;;27.01;100.00;99585.25;5112518;28;20188;-78
2023/06/22 06:38:44;;;;;;;15.48;13.93;;;;;;;26.47;100.00;99587.59;5108046;28;20199;-78
2023/06/22 06:41:11;;;;;;;14.30;12.93;;;;;;;26.92;100.00;99582.50;5112383;28;20214;-78
2023/06/22 06:43:37;;;;;;;15.98;14.27;;;;;;;26.84;100.00;99580.56;5110512;28;20215;-79
2023/06/22 06:46:04;;;;;;;15.43;13.85;;;;;;;26.95;100.00;99581.06;5082823;28;20246;-78
2023/06/22 06:48:31;;;;;;;15.93;14.20;;;;;;;27.15;100.00;99583.09;5098655;28;20198;-79
2023/06/22 06:50:58;;;;;;;17.20;15.43;;;;;;;27.07;100.00;99586.66;5085217;28;20220;-79
2023/06/22 06:53:24;;;;;;;16.23;14.20;;;;;;;27.24;100.00;99580.28;5087290;28;20605;-80
2023/06/22 06:55:51;;;;;;;16.75;14.93;;;;;;;27.26;100.00;99576.06;5089385;28;20254;-79
2023/06/22 06:58:18;;;;;;;16.98;15.25;;;;;;;27.35;100.00;99568.56;5084763;28;20718;-78
2023/06/22 07:00:44;;;;;;;17.00;15.07;;;;;;;27.23;100.00;99562.97;5088562;28;20555;-78
2023/06/22 07:03:11;;;;;;;16.23;14.63;;;;;;;27.37;100.00;99569.06;5096017;28;20765;-78
2023/06/22 07:05:38;;;;;;;20.63;15.32;;;;;;;27.44;100.00;99561.06;5092247;28;20208;-79
2023/06/22 07:08:05;;;;;;;15.48;14.00;;;;;;;27.71;100.00;99572.78;5091266;28;20201;-79
2023/06/22 07:10:31;;;;;;;17.92;13.43;;;;;;;27.84;100.00;99560.69;5092022;28;20223;-78
2023/06/22 07:12:58;;;;;;;15.88;14.23;;;;;;;27.37;100.00;99558.06;5085955;28;20189;-78
2023/06/22 07:15:25;;;;;;;15.48;13.88;;;;;;;27.34;100.00;99564.19;5085121;28;20193;-79
2023/06/22 07:17:52;;;;;;;18.25;14.02;;;;;;;27.53;100.00;99561.03;5085944;28;20195;-78
2023/06/22 07:20:19;;;;;;;16.13;14.00;;;;;;;27.46;100.00;99558.00;5090794;28;20188;-78
2023/06/22 07:22:46;;;;;;;28.17;14.23;;;;;;;27.72;100.00;99555.09;5090909;28;20188;-78
2023/06/22 07:25:16;;;;;;;16.10;14.52;;;;;;;27.86;100.00;99550.94;5088704;28;20212;-79
2023/06/22 07:28:06;;;;;;;19.60;14.70;;;;;;;27.84;100.00;99544.97;5088266;28;20223;-79
2023/06/22 07:30:33;;;;;;;16.92;15.20;;;;;;;27.71;100.00;99548.81;5098729;28;20268;-78
2023/06/22 07:33:07;;;;;;;15.85;13.10;;;;;;;27.77;100.00;99543.88;5088513;28;20198;-77
2023/06/22 07:35:34;;;;;;;16.83;13.93;;;;;;;27.93;100.00;99545.72;5093709;28;20193;-79
2023/06/22 07:38:01;;;;;;;16.90;13.82;;;;;;;27.96;100.00;99541.47;5081353;28;20240;-78
2023/06/22 07:40:31;;;;;;;15.57;13.82;;;;;;;27.38;100.00;99545.09;5089323;28;20196;-78
2023/06/22 07:42:58;;;;;;;15.32;13.57;;;;;;;27.58;100.00;99547.91;5087140;28;20192;-77
2023/06/22 07:45:25;;;;;;;15.40;13.32;;;;;;;28.03;100.00;99536.25;5086139;28;20212;-78
2023/06/22 07:47:51;;;;;;;14.73;13.23;;;;;;;28.17;100.00;99549.75;5087044;28;20219;-77
2023/06/22 07:50:18;;;;;;;13.40;12.07;;;;;;;28.42;100.00;99543.19;5087179;28;20284;-79
2023/06/22 07:52:45;;;;;;;12.80;11.60;;;;;;;28.64;100.00;99533.72;5092276;28;20252;-78
2023/06/22 07:55:12;;;;;;;12.15;10.95;;;;;;;28.76;100.00;99531.81;5091101;28;20666;-78
2023/06/22 07:57:39;;;;;;;11.98;9.63;;;;;;;28.76;100.00;99531.00;5088581;28;20196;-79
2023/06/22 08:00:13;;;;;;;10.75;9.63;;;;;;;28.73;100.00;99534.47;5093159;28;20217;-77
2023/06/22 08:02:40;;;;;;;11.73;9.63;;;;;;;28.95;100.00;99528.50;5096662;28;20557;-78
2023/06/22 08:05:08;;;;;;;10.80;9.20;;;;;;;29.19;100.00;99531.28;5080645;28;20706;-79
2023/06/22 08:07:55;;;;;;;9.65;8.65;;;;;;;29.18;100.00;99535.16;5090332;28;20184;-79
2023/06/22 08:10:22;;;;;;;8.93;7.80;;;;;;;29.45;100.00;99536.44;5094902;28;20218;-78
2023/06/22 08:12:49;;;;;;;11.57;9.05;;;;;;;29.28;100.00;99531.16;5098338;28;20219;-78
2023/06/22 08:15:15;;;;;;;11.40;8.60;;;;;;;29.41;100.00;99537.47;5091610;28;20712;-77
2023/06/22 08:17:43;;;;;;;11.63;8.48;;;;;;;29.55;100.00;99529.66;5092978;28;20275;-79
2023/06/22 08:20:11;;;;;;;10.15;7.05;;;;;;;29.16;100.00;99533.91;5092211;28;20188;-78
2023/06/22 08:22:42;;;;;;;12.07;7.47;;;;;;;29.36;100.00;99537.72;5093917;28;20203;-79
2023/06/22 08:25:10;;;;;;;11.38;7.40;;;;;;;29.56;100.00;99540.34;5095895;28;20212;-79
2023/06/22 08:27:37;;;;;;;8.65;6.03;;;;;;;29.69;100.00;99538.34;5100213;28;20197;-78
2023/06/22 08:30:04;;;;;;;11.85;7.15;;;;;;;29.23;100.00;99534.13;5100221;28;20188;-78
2023/06/22 08:32:32;;;;;;;12.02;7.13;;;;;;;29.22;100.00;99538.03;5101641;28;20231;-79
2023/06/22 08:35:00;;;;;;;8.27;6.55;;;;;;;29.29;100.00;99533.56;5078538;28;20561;-78
2023/06/22 08:37:31;;;;;;;9.95;7.35;;;;;;;29.53;100.00;99527.25;5099476;28;20189;-78
2023/06/22 08:40:05;;;;;;;8.07;6.72;;;;;;;29.76;100.00;99530.31;5095518;28;20196;-79
2023/06/22 08:42:32;;;;;;;9.75;6.68;;;;;;;29.90;100.00;99532.72;5100461;28;20512;-77
2023/06/22 08:44:59;;;;;;;12.38;6.53;;;;;;;30.03;100.00;99523.22;5100380;28;20219;-79
2023/06/22 08:47:27;;;;;;;8.38;6.53;;;;;;;30.22;100.00;99523.38;5096378;28;20193;-78
2023/06/22 08:49:54;;;;;;;10.50;6.57;;;;;;;30.26;100.00;99524.28;5094387;28;20227;-79
2023/06/22 08:52:21;;;;;;;8.82;6.55;;;;;;;30.35;100.00;99524.91;5092522;28;20195;-78
2023/06/22 08:54:47;;;;;;;7.63;6.18;;;;;;;30.55;100.00;99528.66;5106691;28;20193;-79
2023/06/22 08:57:14;;;;;;;6.68;5.97;;;;;;;30.30;100.00;99516.06;5093648;28;20189;-80
2023/06/22 08:59:41;;;;;;;9.38;6.22;;;;;;;29.88;100.00;99510.97;5092545;28;20268;-79
2023/06/22 09:02:09;;;;;;;13.20;6.40;;;;;;;30.20;100.00;99511.84;5093864;28;20606;-78
2023/06/22 09:04:36;;;;;;;7.43;4.45;;;;;;;30.42;100.00;99519.56;5090464;28;20660;-78
2023/06/22 09:07:04;;;;;;;6.30;3.42;;;;;;;30.65;100.00;99519.84;5094925;28;20196;-79
2023/06/22 09:09:30;;;;;;;8.00;4.10;;;;;;;30.74;100.00;99516.88;5089504;28;20312;-79
2023/06/22 09:11:57;;;;;;;5.45;3.35;;;;;;;30.88;99.01;99507.00;5089986;28;20250;-78
2023/06/22 09:14:24;;;;;;;6.10;3.42;;;;;;;30.93;100.00;99520.56;5086453;28;20198;-79
2023/06/22 09:16:50;;;;;;;4.88;3.47;;;;;;;30.86;99.31;99516.78;5093094;28;20688;-79
2023/06/22 09:19:17;;;;;;;5.18;3.00;;;;;;;30.90;100.00;99506.63;5090205;28;20308;-79
2023/06/22 09:21:44;;;;;;;7.15;3.10;;;;;;;31.13;98.90;99504.84;5096324;28;20187;-79
2023/06/22 09:24:10;;;;;;;7.20;2.90;;;;;;;31.09;93.63;99506.72;5099377;28;20192;-78
2023/06/22 09:26:37;;;;;;;5.63;3.25;;;;;;;31.17;91.99;99497.41;5087987;28;20201;-79
2023/06/22 09:29:07;;;;;;;5.55;3.30;;;;;;;31.32;91.49;99502.13;5086290;28;20569;-78
2023/06/22 09:31:33;;;;;;;4.65;3.20;;;;;;;31.35;88.47;99501.44;5091789;28;20189;-78
2023/06/22 09:34:00;;;;;;;6.32;3.00;;;;;;;31.39;89.28;99505.06;5087113;28;20275;-79
2023/06/22 09:36:27;;;;;;;7.38;3.17;;;;;;;31.48;93.23;99502.91;5088887;28;20192;-79
2023/06/22 09:38:58;;;;;;;7.07;3.10;;;;;;;31.36;92.22;99503.00;5093822;28;20574;-78
2023/06/22 09:41:25;;;;;;;6.03;3.10;;;;;;;31.57;91.32;99499.97;5084889;28;20229;-79
2023/06/22 09:43:52;;;;;;;4.43;3.03;;;;;;;31.62;86.58;99498.88;5094972;28;20191;-79
2023/06/22 09:46:24;;;;;;;5.82;2.80;;;;;;;31.64;87.47;99497.31;5092837;28;20211;-78
2023/06/22 09:48:51;;;;;;;6.15;3.08;;;;;;;31.63;87.59;99497.72;5092330;28;20191;-78
2023/06/22 09:51:19;;;;;;;5.47;3.13;;;;;;;31.59;89.47;99494.06;5087566;28;20618;-78
2023/06/22 09:53:46;;;;;;;6.32;3.22;;;;;;;31.74;89.41;99496.75;5091010;28;20659;-78
2023/06/22 09:56:14;;;;;;;4.43;2.78;;;;;;;31.84;86.64;99487.06;5090619;28;20203;-79
2023/06/22 09:58:46;;;;;;;3.92;3.13;;;;;;;31.91;84.88;99490.00;5095536;28;20246;-78
2023/06/22 10:01:16;;;;;;;7.13;3.28;;;;;;;31.74;85.05;99491.22;5091213;28;20308;-78
2023/06/22 10:03:42;;;;;;;4.32;2.90;;;;;;;32.00;84.96;99484.22;5085413;28;20224;-78
2023/06/22 10:06:09;;;;;;;5.03;3.22;;;;;;;32.06;85.76;99483.56;5085819;28;20557;-79
2023/06/22 10:08:36;;;;;;;9.05;3.20;;;;;;;32.17;80.28;99481.03;5091922;28;20192;-79
2023/06/22 10:11:03;;;;;;;4.85;2.85;;;;;;;32.21;83.22;99476.34;5087405;28;20217;-79
2023/06/22 10:13:33;;;;;;;6.47;3.30;;;;;;;32.17;84.60;99481.84;5090375;28;20192;-79
2023/06/22 10:15:59;;;;;;;5.55;3.15;;;;;;;32.16;82.50;99477.44;5092211;28;20246;-78
2023/06/22 10:18:26;;;;;;;6.28;3.28;;;;;;;32.15;82.76;99480.59;5099049;28;20233;-78
2023/06/22 10:20:53;;;;;;;4.88;2.85;;;;;;;32.16;78.83;99473.88;5092765;28;20556;-78
2023/06/22 10:23:20;;;;;;;6.38;3.22;;;;;;;32.04;79.18;99469.28;5092882;28;20189;-79
2023/06/22 10:25:47;;;;;;;7.47;3.35;;;;;;;32.16;79.54;99476.66;5083952;28;20233;-79
2023/06/22 10:28:14;;;;;;;6.82;3.50;;;;;;;32.20;77.60;99469.19;5086396;28;20189;-80
2023/06/22 10:30:41;;;;;;;5.63;3.78;;;;;;;32.39;77.37;99471.13;5079245;28;20189;-79
2023/06/22 10:33:08;;;;;;;6.75;3.60;;;;;;;32.37;77.35;99477.06;5074861;28;20201;-79
2023/06/22 10:35:37;;;;;;;7.82;3.83;;;;;;;32.50;78.31;99466.59;5061549;28;20200;-78
2023/06/22 10:38:04;;;;;;;5.57;3.25;;;;;;;32.46;77.71;99471.28;5081734;28;20195;-79
2023/06/22 10:40:31;;;;;;;5.90;3.40;;;;;;;32.56;77.00;99468.69;5086638;28;20205;-79
2023/06/22 10:42:58;;;;;;;7.88;3.38;;;;;;;32.43;76.91;99463.69;5090782;28;20188;-79
2023/06/22 10:45:25;;;;;;;7.70;3.75;;;;;;;32.73;79.08;99465.44;5085379;28;20216;-78
2023/06/22 10:47:52;;;;;;;6.55;3.80;;;;;;;32.98;77.50;99454.75;5087043;28;20196;-78
2023/06/22 10:50:20;;;;;;;5.75;3.97;;;;;;;33.09;79.14;99455.69;5088243;28;20193;-78
2023/06/22 10:52:46;;;;;;;7.55;3.88;;;;;;;33.12;76.56;99456.94;5092989;28;20210;-78
2023/06/22 10:55:13;;;;;;;6.35;3.85;;;;;;;32.95;75.62;99449.91;5091177;28;20193;-78
2023/06/22 10:57:44;;;;;;;8.27;3.97;;;;;;;33.06;77.81;99450.91;5097763;28;20193;-79
2023/06/22 11:00:11;;;;;;;5.68;4.13;;;;;;;33.08;75.28;99453.31;5099397;28;20226;-79
2023/06/22 11:02:38;;;;;;;6.57;4.13;;;;;;;33.17;75.95;99451.09;5099298;28;20600;-78
2023/06/22 11:05:06;;;;;;;5.68;4.07;;;;;;;33.31;76.09;99445.75;5101459;28;20211;-78
2023/06/22 11:07:33;;;;;;;7.28;4.05;;;;;;;33.45;76.16;99436.81;5096300;28;20207;-78
2023/06/22 11:10:00;;;;;;;7.07;4.32;;;;;;;33.50;75.80;99442.81;5101901;28;20612;-78
2023/06/22 11:12:26;;;;;;;7.35;4.28;;;;;;;33.64;76.59;99436.66;5098841;28;20739;-78
2023/06/22 11:14:53;;;;;;;7.32;4.00;;;;;;;33.70;74.18;99428.78;5107020;28;20598;-78
2023/06/22 11:17:20;;;;;;;6.60;3.92;;;;;;;33.55;76.50;99428.59;5095671;28;20199;-80